West Hazleton, Pennsylvania
Current Conditions -  °F | °C
As of 1:35 PM on Saturday 25 Oct 2014 (Local Time) from KHZL Reporting Station
Scattered Clouds Scattered Clouds  
Wind Chill: 61°   Ceiling: Unl
Heat Index: 61°   Visibility: 10mi
Dew Point: 43°   Wind: 9mph
Humidity: 52%   Direction: 270°W
Pressure: 29.81"   Gusts: 16mph
Location:  40.9393°N, 75.992°W
Report Text: KHZL 251735Z AUTO 27008G14KT 240V300 10SM SCT035 16/06 A2981 RMK AO2
Loading
Personal Weather Stations






























Interactive Weather Map
Tropical Storm Tracking
New forecast layout! Learn more

10-Day Weather Forecast

Advertisements
Track Severe Weather on mobile